Time;durP1;ratioP1;P1;durP2;ratioP2;P2;SDS_P1;SDS_P2;PMS_P1;PMS_P2;Temp;Humidity;BMP_temperature;BMP_pressure;BME280_temperature;BME280_humidity;BME280_pressure;Samples;Min_cycle;Max_cycle;Signal;HPM_P1;HPM_P2
2023/01/29 00:01:29;;;;;;;70.47;30.53;;;-2.90;99.90;;;;;;5010157;28;20543;-49
2023/01/29 00:03:55;;;;;;;70.97;30.17;;;-2.90;99.90;;;;;;5009949;28;20441;-46
2023/01/29 00:06:22;;;;;;;68.53;29.37;;;-2.90;99.90;;;;;;5009704;28;20444;-45
2023/01/29 00:08:48;;;;;;;77.83;30.87;;;-2.90;99.90;;;;;;5009329;28;20873;-47
2023/01/29 00:11:15;;;;;;;72.17;30.77;;;-2.90;99.90;;;;;;5010035;28;20425;-47
2023/01/29 00:13:41;;;;;;;72.03;29.30;;;-2.90;99.90;;;;;;5009053;28;20445;-50
2023/01/29 00:16:08;;;;;;;75.17;30.67;;;-2.90;99.90;;;;;;5010032;28;20475;-45
2023/01/29 00:18:37;;;;;;;71.93;29.73;;;-2.90;99.90;;;;;;5003151;28;20797;-46
2023/01/29 00:21:03;;;;;;;;;;;-2.90;99.90;;;;;;4991004;28;20633;-46
2023/01/29 00:23:29;;;;;;;74.10;30.17;;;-2.90;99.90;;;;;;4990024;28;19910;-44
2023/01/29 00:25:59;;;;;;;70.60;29.10;;;-2.90;99.90;;;;;;4990402;28;20452;-43
2023/01/29 00:28:24;;;;;;;75.30;30.60;;;-2.80;99.90;;;;;;4988889;28;20041;-44
2023/01/29 00:30:50;;;;;;;69.97;28.37;;;-2.90;99.90;;;;;;4990159;28;20426;-45
2023/01/29 00:33:16;;;;;;;72.83;29.80;;;-2.90;99.90;;;;;;4990316;28;20109;-46
2023/01/29 00:35:42;;;;;;;77.77;30.80;;;-2.90;99.90;;;;;;4990450;28;20030;-44
2023/01/29 00:38:08;;;;;;;70.57;29.73;;;-2.90;99.90;;;;;;4972272;28;20034;-43
2023/01/29 00:44:56;;;;;;;71.70;29.93;;;-3.00;99.90;;;;;;4990254;28;20081;-45
2023/01/29 00:46:08;;;;;;;71.50;29.93;;;-3.10;99.90;;;;;;4972477;28;20532;-44
2023/01/29 00:48:34;;;;;;;70.70;29.87;;;-3.10;99.90;;;;;;4971745;28;20429;-48
2023/01/29 00:51:01;;;;;;;85.33;31.13;;;-3.10;99.90;;;;;;4989969;28;20030;-45
2023/01/29 00:53:28;;;;;;;70.10;29.73;;;-3.10;99.90;;;;;;4989649;28;20544;-45
2023/01/29 00:55:54;;;;;;;74.30;30.43;;;-3.10;99.90;;;;;;4989863;28;20539;-46
2023/01/29 00:58:20;;;;;;;73.17;30.03;;;-3.10;99.90;;;;;;4988675;28;20544;-47
2023/01/29 01:00:49;;;;;;;72.67;30.30;;;-3.10;99.90;;;;;;4989808;28;20506;-49
2023/01/29 01:03:15;;;;;;;72.50;30.77;;;-3.10;99.90;;;;;;4989541;28;20980;-48
2023/01/29 01:05:41;;;;;;;77.60;30.57;;;-3.10;99.90;;;;;;4989660;28;20026;-48
2023/01/29 01:11:05;;;;;;;71.93;29.07;;;-3.10;99.90;;;;;;4989749;28;20100;-47
2023/01/29 01:13:33;;;;;;;73.97;29.83;;;-3.10;99.90;;;;;;4971056;28;20444;-44
2023/01/29 01:15:59;;;;;;;71.80;29.40;;;-3.10;99.90;;;;;;4989497;28;20433;-47
2023/01/29 01:18:29;;;;;;;72.90;30.60;;;-3.10;99.90;;;;;;4971552;28;20811;-45
2023/01/29 01:20:58;;;;;;;78.85;31.20;;;-3.10;99.90;;;;;;4993339;28;20421;-48
2023/01/29 01:23:24;;;;;;;69.45;28.70;;;-3.10;99.90;;;;;;4992980;28;20034;-45
2023/01/29 01:25:50;;;;;;;72.83;31.13;;;-3.10;99.90;;;;;;4975791;28;20072;-46
2023/01/29 01:28:15;;;;;;;75.73;29.33;;;-3.10;99.90;;;;;;4974371;28;20465;-44
2023/01/29 01:30:41;;;;;;;75.20;30.83;;;-3.10;99.90;;;;;;4993079;28;20027;-44
2023/01/29 01:33:07;;;;;;;72.53;30.03;;;-3.10;99.90;;;;;;4975198;28;20506;-48
2023/01/29 01:35:33;;;;;;;75.50;30.47;;;-3.10;99.90;;;;;;4992902;28;20109;-45
2023/01/29 01:37:59;;;;;;;76.17;29.87;;;-3.10;99.90;;;;;;4992568;28;20379;-49
2023/01/29 01:40:25;;;;;;;72.13;29.17;;;-3.10;99.90;;;;;;4992921;28;20461;-44
2023/01/29 01:42:53;;;;;;;75.17;29.67;;;-3.10;99.90;;;;;;4991732;28;20822;-45
2023/01/29 01:45:31;;;;;;;72.97;28.60;;;-3.10;99.90;;;;;;4992596;28;20092;-44
2023/01/29 01:48:03;;;;;;;71.23;29.97;;;-3.10;99.90;;;;;;4992320;28;20449;-48
2023/01/29 01:50:50;;;;;;;72.43;29.63;;;-3.10;99.90;;;;;;4992875;28;20468;-44
2023/01/29 01:53:28;;;;;;;76.67;29.67;;;-3.10;99.90;;;;;;4992763;28;20509;-44
2023/01/29 01:56:02;;;;;;;73.43;29.40;;;-3.10;99.90;;;;;;4992571;28;20437;-45
2023/01/29 01:58:36;;;;;;;74.47;29.27;;;-3.20;99.90;;;;;;4973544;28;20492;-46
2023/01/29 02:01:07;;;;;;;74.40;29.90;;;-3.10;99.90;;;;;;4974984;28;20465;-46
2023/01/29 02:09:33;;;;;;;73.63;30.50;;;-3.10;99.90;;;;;;4992729;28;20554;-46
2023/01/29 02:12:04;;;;;;;84.33;32.30;;;-3.10;99.90;;;;;;4973842;28;20583;-46
2023/01/29 02:14:30;;;;;;;75.10;30.73;;;-3.20;99.90;;;;;;4992125;28;20437;-47
2023/01/29 02:16:59;;;;;;;80.40;30.40;;;-3.20;99.90;;;;;;4991879;28;20767;-44
2023/01/29 02:19:38;;;;;;;81.43;30.88;;;-3.20;99.90;;;;;;4992301;28;20468;-45
2023/01/29 02:22:24;;;;;;;85.57;31.67;;;-3.20;99.90;;;;;;4991970;28;20181;-44
2023/01/29 02:25:08;;;;;;;75.50;29.43;;;-3.20;99.90;;;;;;4991897;28;20417;-46
2023/01/29 02:28:02;;;;;;;79.20;31.67;;;-3.20;99.90;;;;;;4973180;28;20841;-46
2023/01/29 02:30:38;;;;;;;82.30;32.67;;;-3.20;99.90;;;;;;4973432;28;20649;-48
2023/01/29 02:33:37;;;;;;;85.10;32.97;;;-3.20;99.90;;;;;;4991548;28;20437;-49
2023/01/29 02:36:05;;;;;;;79.70;31.33;;;-3.20;99.90;;;;;;4974254;28;21144;-46
2023/01/29 02:38:52;;;;;;;74.63;30.83;;;-3.10;99.90;;;;;;4973527;28;20485;-45
2023/01/29 02:41:26;;;;;;;81.47;31.07;;;-3.10;99.90;;;;;;4973476;28;20472;-46
2023/01/29 02:43:56;;;;;;;78.37;29.87;;;-3.10;99.90;;;;;;4991551;28;20529;-49
2023/01/29 02:46:31;;;;;;;;;;;-3.00;99.90;;;;;;4974028;28;21220;-50
2023/01/29 02:49:15;;;;;;;72.27;27.73;;;-3.00;99.90;;;;;;4991766;28;20282;-47
2023/01/29 02:51:50;;;;;;;73.60;29.30;;;-3.00;99.90;;;;;;4973756;28;20973;-46
2023/01/29 02:54:19;;;;;;;72.97;28.80;;;-3.00;99.90;;;;;;4973666;28;20448;-44
2023/01/29 02:57:03;;;;;;;72.40;29.50;;;-3.00;99.90;;;;;;4972507;28;20452;-45
2023/01/29 02:59:48;;;;;;;72.70;29.90;;;-3.10;99.90;;;;;;4973740;28;20046;-43
2023/01/29 03:02:19;;;;;;;73.70;30.60;;;-3.10;99.90;;;;;;4957432;28;20923;-46
2023/01/29 03:04:55;;;;;;;77.50;30.10;;;-3.10;99.90;;;;;;4973684;28;20421;-48
2023/01/29 03:07:43;;;;;;;77.13;30.80;;;-3.10;99.90;;;;;;4973234;28;21002;-47
2023/01/29 03:10:20;;;;;;;75.40;30.13;;;-3.10;99.90;;;;;;4973722;28;21009;-48
2023/01/29 03:12:54;;;;;;;77.60;30.50;;;-3.10;99.90;;;;;;4989993;28;20508;-51
2023/01/29 03:15:38;;;;;;;78.70;31.23;;;-3.10;99.90;;;;;;4991068;28;20425;-45
2023/01/29 03:18:26;;;;;;;81.73;30.93;;;-3.20;99.90;;;;;;4990818;28;20435;-48
2023/01/29 03:20:58;;;;;;;81.07;31.53;;;-3.20;99.90;;;;;;4991078;28;20476;-47
2023/01/29 03:32:05;;;;;;;76.97;30.20;;;-3.20;99.90;;;;;;4972964;28;20453;-50
2023/01/29 03:34:47;;;;;;;82.73;32.90;;;-3.20;99.90;;;;;;4990710;28;20445;-47
2023/01/29 03:39:39;;;;;;;82.43;31.37;;;-3.20;99.90;;;;;;5024543;28;20464;-47
2023/01/29 03:42:17;;;;;;;82.13;31.63;;;-3.30;99.90;;;;;;5027182;28;20529;-45
2023/01/29 03:45:04;;;;;;;75.87;29.97;;;-3.40;99.90;;;;;;5028174;28;20512;-47
2023/01/29 03:47:47;;;;;;;81.83;31.03;;;-3.40;99.90;;;;;;5028069;28;20548;-50
2023/01/29 03:50:16;;;;;;;80.83;30.93;;;-3.40;99.90;;;;;;5028328;28;20436;-48
2023/01/29 03:52:45;;;;;;;80.17;31.87;;;-3.40;99.90;;;;;;5029513;28;20432;-46
2023/01/29 03:55:13;;;;;;;80.78;31.50;;;-3.40;99.90;;;;;;5028032;28;20531;-45
2023/01/29 03:57:57;;;;;;;84.03;31.02;;;-3.40;99.90;;;;;;5026535;28;20034;-47
2023/01/29 04:00:33;;;;;;;84.80;30.53;;;-3.40;99.90;;;;;;5027894;28;20030;-48
2023/01/29 04:03:32;;;;;;;74.35;29.77;;;-3.40;99.90;;;;;;5027748;28;20460;-46
2023/01/29 04:06:11;;;;;;;76.80;30.70;;;-3.40;99.90;;;;;;5027987;28;20103;-46
2023/01/29 04:08:58;;;;;;;80.17;30.70;;;-3.40;99.90;;;;;;5027818;28;20448;-46
2023/01/29 04:11:27;;;;;;;74.57;30.00;;;-3.30;99.90;;;;;;5026578;28;20451;-45
2023/01/29 04:13:55;;;;;;;71.53;28.60;;;-3.30;99.90;;;;;;5029141;28;20501;-45
2023/01/29 04:16:25;;;;;;;70.57;27.73;;;-3.20;99.90;;;;;;5028947;28;20464;-48
2023/01/29 04:19:24;;;;;;;73.80;29.67;;;-3.20;99.90;;;;;;5007332;28;20491;-47
2023/01/29 04:21:59;;;;;;;80.10;31.50;;;-3.20;99.90;;;;;;5027292;28;20456;-48
2023/01/29 04:24:24;;;;;;;79.37;31.70;;;-3.20;99.90;;;;;;5027577;28;20959;-50
2023/01/29 04:27:16;;;;;;;81.13;31.27;;;-3.20;99.90;;;;;;5026312;28;20474;-46
2023/01/29 04:30:11;;;;;;;78.40;30.90;;;-3.20;99.90;;;;;;5027808;28;20642;-48
2023/01/29 04:33:04;;;;;;;73.53;29.50;;;-3.20;99.90;;;;;;4984968;28;20455;-47
2023/01/29 04:35:58;;;;;;;82.87;31.23;;;-3.10;99.90;;;;;;5027481;28;20991;-47
2023/01/29 04:38:33;;;;;;;71.83;29.33;;;-3.10;99.90;;;;;;4983843;28;20518;-46
2023/01/29 04:41:10;;;;;;;76.40;30.20;;;-3.10;99.90;;;;;;5028855;28;20428;-45
2023/01/29 04:43:47;;;;;;;73.73;30.20;;;-3.00;99.90;;;;;;5027823;28;20440;-46
2023/01/29 04:46:21;;;;;;;77.87;30.23;;;-3.00;99.90;;;;;;5028643;28;20428;-47
2023/01/29 04:49:19;;;;;;;78.47;30.70;;;-3.00;99.90;;;;;;5029059;28;20444;-46
2023/01/29 04:52:00;;;;;;;76.47;30.77;;;-2.90;99.90;;;;;;5024767;28;20452;-48
2023/01/29 04:54:47;;;;;;;74.90;30.10;;;-2.90;99.90;;;;;;5030153;28;20432;-48
2023/01/29 04:57:33;;;;;;;75.33;31.87;;;-2.90;99.90;;;;;;5031385;28;20464;-49
2023/01/29 05:00:12;;;;;;;73.20;29.83;;;-2.90;99.90;;;;;;5032733;28;20438;-50
2023/01/29 05:02:40;;;;;;;71.53;27.73;;;-2.80;99.90;;;;;;5032420;28;20996;-46
2023/01/29 05:05:08;;;;;;;72.30;29.90;;;-2.80;99.90;;;;;;5032389;28;20454;-49
2023/01/29 05:07:37;;;;;;;70.10;27.47;;;-2.80;99.90;;;;;;5032202;28;20447;-46
2023/01/29 05:10:08;;;;;;;64.50;24.45;;;-2.70;99.90;;;;;;5032698;28;20474;-47
2023/01/29 05:12:35;;;;;;;75.30;30.00;;;-2.70;99.90;;;;;;5031455;28;20102;-46
2023/01/29 05:15:07;;;;;;;67.90;28.50;;;-2.70;99.90;;;;;;5032400;28;20444;-45
2023/01/29 05:17:32;;;;;;;77.53;30.37;;;-2.60;99.90;;;;;;5031844;28;20486;-45
2023/01/29 05:19:58;;;;;;;71.60;29.23;;;-2.50;99.90;;;;;;5032754;28;20444;-46
2023/01/29 05:22:25;;;;;;;65.13;27.80;;;-2.50;99.90;;;;;;5032190;28;20045;-46
2023/01/29 05:24:51;;;;;;;72.50;28.63;;;-2.50;99.90;;;;;;5032506;28;20029;-48
2023/01/29 05:30:09;;;;;;;71.80;28.83;;;-2.40;99.90;;;;;;5032013;28;20476;-47
2023/01/29 05:32:35;;;;;;;69.17;28.77;;;-2.40;99.90;;;;;;5032390;28;20914;-45
2023/01/29 05:35:00;;;;;;;74.40;28.33;;;-2.40;99.90;;;;;;5031981;28;20443;-46
2023/01/29 05:37:26;;;;;;;73.30;28.23;;;-2.40;99.90;;;;;;5031238;28;20041;-45
2023/01/29 05:39:52;;;;;;;75.20;30.60;;;-2.30;99.90;;;;;;5032287;28;20118;-47
2023/01/29 05:42:17;;;;;;;74.73;30.60;;;-2.30;99.90;;;;;;5030520;28;20132;-47
2023/01/29 05:44:43;;;;;;;71.97;30.03;;;-2.30;99.90;;;;;;5031838;28;20041;-46
2023/01/29 05:47:09;;;;;;;72.67;29.20;;;-2.30;99.90;;;;;;5031683;28;20167;-48
2023/01/29 05:49:34;;;;;;;77.50;30.60;;;-2.20;99.90;;;;;;5032076;28;20026;-50
2023/01/29 05:52:00;;;;;;;79.73;30.97;;;-2.20;99.90;;;;;;5031496;28;20137;-48
2023/01/29 05:54:26;;;;;;;75.27;28.27;;;-2.10;99.90;;;;;;5032093;28;20117;-46
2023/01/29 05:56:52;;;;;;;65.60;28.50;;;-2.10;99.90;;;;;;5030420;28;20109;-49
2023/01/29 05:59:17;;;;;;;71.80;30.30;;;-2.00;99.90;;;;;;5031763;28;20382;-47
2023/01/29 06:01:43;;;;;;;70.97;29.20;;;-2.00;99.90;;;;;;5031485;28;20487;-46
2023/01/29 06:04:09;;;;;;;70.67;29.17;;;-2.00;99.90;;;;;;5031745;28;20047;-46
2023/01/29 06:06:34;;;;;;;68.57;28.33;;;-2.00;99.90;;;;;;5029939;28;20489;-46
2023/01/29 06:09:00;;;;;;;73.93;30.27;;;-2.00;99.90;;;;;;5031783;28;20040;-45
2023/01/29 06:11:26;;;;;;;73.30;29.27;;;-2.00;99.90;;;;;;5030476;28;20057;-45
2023/01/29 06:13:52;;;;;;;71.53;29.90;;;-2.00;99.90;;;;;;5031478;28;20474;-46
2023/01/29 06:16:17;;;;;;;71.37;30.07;;;-1.80;99.90;;;;;;5031704;28;20452;-46
2023/01/29 06:18:43;;;;;;;66.17;26.97;;;-1.90;99.90;;;;;;5031384;28;20346;-46
2023/01/29 06:21:11;;;;;;;63.53;26.93;;;-1.80;99.90;;;;;;5031491;28;20358;-46
2023/01/29 06:23:38;;;;;;;72.33;30.17;;;-1.80;99.90;;;;;;5031003;28;20065;-46
2023/01/29 06:26:07;;;;;;;69.10;27.10;;;-1.90;99.90;;;;;;5031240;28;20513;-45
2023/01/29 06:28:33;;;;;;;72.63;30.13;;;-1.80;99.90;;;;;;5029910;28;20030;-45
2023/01/29 06:31:01;;;;;;;72.67;29.27;;;-1.80;99.90;;;;;;5031471;28;20036;-46
2023/01/29 06:33:26;;;;;;;64.27;27.33;;;-1.80;99.90;;;;;;5030894;28;20037;-44
2023/01/29 06:36:01;;;;;;;62.53;26.87;;;-1.80;99.90;;;;;;5031440;28;20084;-44
2023/01/29 06:38:27;;;;;;;64.77;26.80;;;-1.80;99.90;;;;;;5030676;28;20102;-44
2023/01/29 06:40:54;;;;;;;61.33;27.30;;;-1.70;99.90;;;;;;5030995;28;20045;-45
2023/01/29 06:43:20;;;;;;;71.00;28.00;;;-1.70;99.90;;;;;;5029827;28;20452;-47
2023/01/29 06:45:51;;;;;;;66.57;28.17;;;-1.80;99.90;;;;;;5031108;28;20424;-49
2023/01/29 06:48:17;;;;;;;65.97;27.37;;;-1.70;99.90;;;;;;5030679;28;20519;-47
2023/01/29 06:50:43;;;;;;;55.53;22.07;;;-1.70;99.90;;;;;;5030948;28;20033;-46
2023/01/29 06:53:09;;;;;;;65.33;28.10;;;-1.70;99.90;;;;;;5030740;28;20095;-45
2023/01/29 06:55:35;;;;;;;64.53;27.17;;;-1.70;99.90;;;;;;5030737;28;20025;-45
2023/01/29 06:58:08;;;;;;;67.60;27.47;;;-1.70;99.90;;;;;;5029843;28;21141;-46
2023/01/29 07:00:35;;;;;;;63.27;24.97;;;-1.80;99.90;;;;;;5030469;28;20033;-46
2023/01/29 07:03:01;;;;;;;62.37;26.27;;;-1.80;99.90;;;;;;5030543;28;20629;-48
2023/01/29 07:05:27;;;;;;;63.47;27.20;;;-1.70;99.90;;;;;;5030595;28;20707;-45
2023/01/29 07:07:53;;;;;;;65.93;27.97;;;-1.70;99.90;;;;;;5030176;28;20443;-45
2023/01/29 07:10:19;;;;;;;63.90;25.93;;;-1.80;99.90;;;;;;5030626;28;20025;-46
2023/01/29 07:12:45;;;;;;;68.87;28.20;;;-1.80;99.90;;;;;;5029508;28;20122;-45
2023/01/29 07:15:11;;;;;;;66.87;27.60;;;-1.80;99.90;;;;;;5030554;28;20061;-46
2023/01/29 07:17:38;;;;;;;50.70;18.00;;;-1.80;99.90;;;;;;5029598;28;20025;-46
2023/01/29 07:20:04;;;;;;;71.47;28.97;;;-1.70;99.90;;;;;;5030215;28;20442;-46
2023/01/29 07:22:31;;;;;;;61.40;25.90;;;-1.70;99.90;;;;;;5029979;28;20037;-46
2023/01/29 07:24:56;;;;;;;66.97;26.83;;;-1.70;99.90;;;;;;5030180;28;20030;-46
2023/01/29 07:27:22;;;;;;;72.13;29.43;;;-1.70;99.90;;;;;;5028842;28;20035;-46
2023/01/29 07:29:48;;;;;;;71.70;27.93;;;-1.70;99.90;;;;;;5029036;28;20379;-47
2023/01/29 07:32:14;;;;;;;63.17;26.93;;;-1.70;99.90;;;;;;5030071;28;20033;-50
2023/01/29 07:34:39;;;;;;;64.87;26.20;;;-1.70;99.90;;;;;;5030159;28;20171;-48
2023/01/29 07:37:05;;;;;;;71.70;29.27;;;-1.70;99.90;;;;;;5029598;28;20043;-47
2023/01/29 07:39:31;;;;;;;69.87;28.37;;;-1.70;99.90;;;;;;5029728;28;20072;-47
2023/01/29 07:41:57;;;;;;;70.00;28.77;;;-1.70;99.90;;;;;;5028724;28;20025;-44
2023/01/29 07:44:25;;;;;;;63.23;26.23;;;-1.60;99.90;;;;;;5028761;28;20439;-45
2023/01/29 07:46:51;;;;;;;69.20;28.03;;;-1.60;99.90;;;;;;5029481;28;20432;-45
2023/01/29 07:49:17;;;;;;;68.60;26.93;;;-1.50;99.90;;;;;;5030141;28;20075;-45
2023/01/29 07:51:42;;;;;;;69.63;29.07;;;-1.50;99.90;;;;;;5029537;28;20498;-45
2023/01/29 07:54:08;;;;;;;69.93;27.07;;;-1.40;99.90;;;;;;5029501;28;20048;-46
2023/01/29 07:56:34;;;;;;;68.90;27.20;;;-1.40;99.90;;;;;;5028324;28;20041;-46
2023/01/29 07:59:00;;;;;;;71.50;27.40;;;-1.40;99.90;;;;;;5029547;28;20083;-45
2023/01/29 08:01:25;;;;;;;67.00;28.13;;;-1.40;99.90;;;;;;5029474;28;20033;-46
2023/01/29 08:03:51;;;;;;;66.13;26.47;;;-1.30;99.90;;;;;;5029606;28;20029;-45
2023/01/29 08:06:18;;;;;;;68.90;28.27;;;-1.30;99.90;;;;;;5029289;28;20112;-46
2023/01/29 08:08:43;;;;;;;65.27;27.03;;;-1.20;99.90;;;;;;5029352;28;20032;-45
2023/01/29 08:11:09;;;;;;;72.27;27.53;;;-1.20;99.90;;;;;;5028404;28;20112;-47
2023/01/29 08:13:35;;;;;;;69.13;27.40;;;-1.20;99.90;;;;;;5028118;28;20033;-48
2023/01/29 08:16:02;;;;;;;70.23;28.43;;;-1.20;99.90;;;;;;5029906;28;20102;-45
2023/01/29 08:18:30;;;;;;;67.60;27.77;;;-1.20;99.90;;;;;;5029226;28;20485;-49
2023/01/29 08:21:02;;;;;;;64.10;26.23;;;-1.20;99.90;;;;;;5029597;28;20116;-45
2023/01/29 08:23:28;;;;;;;66.37;27.17;;;-1.10;99.90;;;;;;5029553;28;20033;-47
2023/01/29 08:25:54;;;;;;;66.10;27.47;;;-1.10;99.90;;;;;;5029688;28;20029;-48
2023/01/29 08:28:19;;;;;;;65.57;25.97;;;-1.10;99.90;;;;;;5027440;28;20431;-47
2023/01/29 08:30:45;;;;;;;69.60;28.97;;;-1.10;99.90;;;;;;5029105;28;20030;-46
2023/01/29 08:33:11;;;;;;;61.37;26.07;;;-1.00;99.90;;;;;;5027469;28;20041;-45
2023/01/29 08:35:40;;;;;;;68.93;27.73;;;-1.10;99.90;;;;;;5028838;28;20063;-45
2023/01/29 08:38:05;;;;;;;62.13;28.17;;;-1.00;99.90;;;;;;5028428;28;20132;-44
2023/01/29 08:40:33;;;;;;;67.37;27.63;;;-1.10;99.90;;;;;;5029118;28;20117;-45
2023/01/29 08:43:06;;;;;;;68.73;28.27;;;-1.00;99.90;;;;;;5027536;28;20462;-49
2023/01/29 08:45:33;;;;;;;67.87;28.37;;;-1.00;99.90;;;;;;5028698;28;20069;-47
2023/01/29 08:47:59;;;;;;;65.80;28.30;;;-1.00;99.90;;;;;;5028380;28;20121;-45
2023/01/29 08:50:25;;;;;;;63.90;28.57;;;-1.00;99.90;;;;;;5028736;28;20109;-44
2023/01/29 08:52:55;;;;;;;63.20;27.10;;;-1.00;99.90;;;;;;5028841;28;20448;-44
2023/01/29 08:55:21;;;;;;;68.17;28.93;;;-1.00;99.90;;;;;;5028710;28;20053;-47
2023/01/29 08:57:47;;;;;;;56.03;22.53;;;-1.10;99.90;;;;;;5027718;28;20132;-45
2023/01/29 09:00:13;;;;;;;67.30;27.60;;;-1.10;99.90;;;;;;5029083;28;20053;-44
2023/01/29 09:02:39;;;;;;;66.70;27.43;;;-1.00;99.90;;;;;;5028577;28;20474;-49
2023/01/29 09:05:06;;;;;;;59.57;24.50;;;-1.00;99.90;;;;;;5029030;28;20171;-45
2023/01/29 09:07:32;;;;;;;63.97;25.03;;;-0.90;99.90;;;;;;5028482;28;20365;-47
2023/01/29 09:09:57;;;;;;;63.50;27.47;;;-0.90;99.90;;;;;;5028823;28;20094;-44
2023/01/29 09:12:23;;;;;;;66.37;27.37;;;-0.90;99.90;;;;;;5027473;28;20033;-45
2023/01/29 09:14:49;;;;;;;62.67;26.90;;;-0.90;99.90;;;;;;5028546;28;20025;-45
2023/01/29 09:17:15;;;;;;;73.43;28.23;;;-0.80;99.90;;;;;;5028114;28;20041;-46
2023/01/29 09:19:40;;;;;;;69.23;28.80;;;-0.80;99.90;;;;;;5028874;28;20018;-44
2023/01/29 09:22:06;;;;;;;68.40;28.43;;;-0.70;99.90;;;;;;5028871;28;20135;-47
2023/01/29 09:24:33;;;;;;;63.47;27.97;;;-0.70;99.90;;;;;;5028988;28;20032;-45
2023/01/29 09:26:59;;;;;;;62.67;27.73;;;-0.70;99.90;;;;;;5027204;28;20506;-47
2023/01/29 09:29:25;;;;;;;65.77;27.73;;;-0.70;99.90;;;;;;5028795;28;20365;-47
2023/01/29 09:31:51;;;;;;;72.73;28.83;;;-0.70;99.90;;;;;;5028426;28;20047;-48
2023/01/29 09:34:17;;;;;;;67.10;28.03;;;-0.70;99.90;;;;;;5028475;28;20478;-46
2023/01/29 09:36:42;;;;;;;69.30;27.97;;;-0.70;99.90;;;;;;5028112;28;20033;-49
2023/01/29 09:39:08;;;;;;;72.23;29.10;;;-0.60;99.90;;;;;;5027810;23;20259;-45
2023/01/29 09:41:55;;;;;;;66.87;25.73;;;-0.60;99.90;;;;;;5010407;28;20045;-46
2023/01/29 09:44:47;;;;;;;52.87;22.67;;;-0.50;99.90;;;;;;5012310;28;20315;-44
2023/01/29 09:47:16;;;;;;;68.83;28.47;;;-0.50;99.90;;;;;;5012111;28;20425;-44
2023/01/29 09:49:49;;;;;;;61.63;26.17;;;-0.50;99.90;;;;;;5032168;28;20072;-48
2023/01/29 09:52:22;;;;;;;62.53;25.63;;;-0.40;99.90;;;;;;5031873;28;20037;-44
2023/01/29 09:54:53;;;;;;;67.13;27.50;;;-0.50;99.90;;;;;;5032009;28;20038;-45
2023/01/29 09:57:37;;;;;;;60.40;25.03;;;-0.40;99.90;;;;;;5030560;28;20041;-45
2023/01/29 10:00:04;;;;;;;67.73;28.00;;;-0.40;99.90;;;;;;5032126;28;20039;-45
2023/01/29 10:03:08;;;;;;;64.33;28.10;;;-0.40;99.90;;;;;;5031790;28;20126;-45
2023/01/29 10:05:47;;;;;;;63.80;25.27;;;-0.30;99.90;;;;;;5031888;28;20030;-46
2023/01/29 10:08:31;;;;;;;65.40;27.00;;;-0.20;99.90;;;;;;5031472;28;20394;-46
2023/01/29 10:11:30;;;;;;;59.13;24.87;;;-0.20;99.90;;;;;;5031798;28;20029;-45
2023/01/29 10:14:11;;;;;;;65.95;27.83;;;-0.10;99.90;;;;;;5027794;28;20053;-44
2023/01/29 10:16:45;;;;;;;59.90;23.47;;;0.00;99.90;;;;;;5031333;28;20104;-44
2023/01/29 10:20:03;;;;;;;65.20;28.07;;;-0.10;99.90;;;;;;5032140;28;20022;-44
2023/01/29 10:22:40;;;;;;;64.72;26.70;;;-0.10;99.90;;;;;;4987485;28;20490;-45
2023/01/29 10:25:13;;;;;;;65.23;28.27;;;-0.10;99.90;;;;;;5031841;28;20112;-49
2023/01/29 10:27:45;;;;;;;60.07;25.83;;;0.00;99.90;;;;;;5030101;28;20383;-49
2023/01/29 10:30:31;;;;;;;65.23;25.67;;;0.00;99.90;;;;;;5031337;28;20032;-44
2023/01/29 10:33:02;;;;;;;66.93;26.83;;;0.10;99.90;;;;;;5031558;28;20033;-44
2023/01/29 10:35:33;;;;;;;60.87;24.87;;;0.10;99.90;;;;;;5031273;28;20029;-45
2023/01/29 10:38:25;;;;;;;60.03;25.57;;;0.20;99.90;;;;;;5030731;28;20048;-45
2023/01/29 10:41:25;;;;;;;64.83;26.17;;;0.20;99.90;;;;;;5031375;28;20029;-46
2023/01/29 10:44:08;;;;;;;63.07;26.47;;;0.30;99.90;;;;;;5020370;28;20116;-49
2023/01/29 10:46:49;;;;;;;62.57;26.60;;;0.30;99.90;;;;;;5030685;28;20034;-43
2023/01/29 10:49:21;;;;;;;59.17;23.83;;;0.30;99.90;;;;;;5031166;28;20028;-43
2023/01/29 10:51:59;;;;;;;61.57;25.13;;;0.30;99.90;;;;;;5029958;28;20033;-43
2023/01/29 10:54:45;;;;;;;62.83;25.85;;;0.30;99.90;;;;;;5031225;28;20121;-45
2023/01/29 10:57:33;;;;;;;62.90;25.80;;;0.40;99.90;;;;;;5011512;28;20552;-44
2023/01/29 11:00:29;;;;;;;57.10;25.50;;;0.40;99.90;;;;;;5031285;28;20029;-44
2023/01/29 11:02:56;;;;;;;61.80;25.73;;;0.40;99.90;;;;;;5030687;28;20060;-44
2023/01/29 11:05:28;;;;;;;57.63;25.20;;;0.40;99.90;;;;;;5030790;28;20033;-44
2023/01/29 11:08:15;;;;;;;58.17;24.40;;;0.40;99.90;;;;;;5030469;28;20041;-43
2023/01/29 11:11:04;;;;;;;64.70;27.33;;;0.40;99.90;;;;;;5030641;28;20032;-44
2023/01/29 11:13:33;;;;;;;65.83;26.93;;;0.40;99.90;;;;;;5029171;28;20477;-44
2023/01/29 11:15:59;;;;;;;64.40;26.00;;;0.50;99.90;;;;;;5030535;28;20426;-43
2023/01/29 11:18:25;;;;;;;66.60;26.43;;;0.50;99.90;;;;;;5030102;28;20032;-45
2023/01/29 11:21:03;;;;;;;63.70;25.10;;;0.50;99.90;;;;;;5030483;28;20038;-45
2023/01/29 11:23:31;;;;;;;62.83;26.10;;;0.60;99.90;;;;;;5030234;28;20041;-45
2023/01/29 11:25:59;;;;;;;65.00;27.40;;;0.60;99.90;;;;;;5030437;28;20034;-46
2023/01/29 11:28:39;;;;;;;69.57;26.60;;;0.60;99.90;;;;;;5028745;28;20116;-44
2023/01/29 11:31:22;;;;;;;70.20;30.57;;;0.60;99.90;;;;;;5030531;28;20030;-44
2023/01/29 11:33:51;;;;;;;67.83;27.70;;;0.60;99.90;;;;;;5030219;28;20037;-44
2023/01/29 11:36:26;;;;;;;56.78;22.65;;;0.60;99.90;;;;;;5030137;28;20028;-46
2023/01/29 11:39:21;;;;;;;65.43;27.10;;;0.50;99.90;;;;;;5029708;28;20312;-45
2023/01/29 11:41:54;;;;;;;66.13;26.63;;;0.60;99.90;;;;;;5012495;28;20406;-44
2023/01/29 11:44:29;;;;;;;65.40;26.20;;;0.60;99.90;;;;;;5030035;28;20056;-44
2023/01/29 11:46:59;;;;;;;63.43;26.80;;;0.60;99.90;;;;;;5029623;28;20038;-44
2023/01/29 11:49:30;;;;;;;;;;;0.60;99.90;;;;;;5030337;28;20036;-44
2023/01/29 11:51:58;;;;;;;57.37;22.93;;;0.60;99.90;;;;;;5029652;28;19920;-46
2023/01/29 11:54:30;;;;;;;56.80;21.93;;;0.70;99.90;;;;;;5030123;28;20419;-43
2023/01/29 11:56:56;;;;;;;64.33;25.13;;;0.70;99.90;;;;;;5028509;28;20454;-44
2023/01/29 11:59:39;;;;;;;67.13;27.20;;;0.80;99.90;;;;;;5029826;28;20029;-44
2023/01/29 12:02:22;;;;;;;62.60;24.97;;;0.70;99.90;;;;;;5029684;28;20033;-48
2023/01/29 12:04:49;;;;;;;65.37;25.67;;;0.80;99.90;;;;;;5029520;28;20086;-44
2023/01/29 12:07:17;;;;;;;63.40;27.37;;;0.80;99.90;;;;;;5029439;28;20398;-47
2023/01/29 12:09:57;;;;;;;62.53;25.83;;;0.80;99.90;;;;;;5029646;28;20076;-44
2023/01/29 12:12:29;;;;;;;63.53;26.33;;;0.80;99.90;;;;;;5028067;28;20052;-46
2023/01/29 12:15:15;;;;;;;64.03;27.47;;;0.90;99.90;;;;;;5029834;28;20107;-44
2023/01/29 12:17:44;;;;;;;65.30;27.33;;;1.00;99.90;;;;;;5028991;28;20061;-48
2023/01/29 12:20:14;;;;;;;62.95;24.75;;;1.00;99.90;;;;;;5029462;28;20059;-47
2023/01/29 12:22:49;;;;;;;63.40;26.30;;;1.00;99.90;;;;;;5029117;28;20554;-44
2023/01/29 12:25:17;;;;;;;62.30;26.27;;;1.00;99.90;;;;;;5029070;28;20164;-44
2023/01/29 12:28:05;;;;;;;63.42;24.30;;;1.00;99.90;;;;;;5027801;28;20448;-43
2023/01/29 12:30:40;;;;;;;62.60;26.60;;;1.00;99.90;;;;;;5029344;28;20144;-47
2023/01/29 12:33:23;;;;;;;57.40;24.13;;;1.10;99.90;;;;;;5028645;28;20037;-44
2023/01/29 12:36:00;;;;;;;59.77;24.97;;;1.10;99.90;;;;;;5029570;28;20497;-47
2023/01/29 12:38:26;;;;;;;56.47;24.03;;;1.10;99.90;;;;;;5028936;28;20477;-42
2023/01/29 12:41:15;;;;;;;58.60;25.20;;;1.20;99.90;;;;;;5029274;28;20029;-43
2023/01/29 12:43:46;;;;;;;67.78;24.80;;;1.20;99.90;;;;;;5028087;28;20556;-45
2023/01/29 12:46:26;;;;;;;54.90;23.00;;;1.20;99.90;;;;;;5029107;28;20113;-48
2023/01/29 12:48:55;;;;;;;61.13;24.63;;;1.30;99.90;;;;;;5029262;28;20041;-45
2023/01/29 12:51:28;;;;;;;60.15;25.38;;;1.30;99.90;;;;;;5029023;28;20029;-44
2023/01/29 12:54:06;;;;;;;56.23;23.63;;;1.30;99.90;;;;;;5028814;28;20033;-45
2023/01/29 12:56:37;;;;;;;58.53;24.33;;;1.40;99.90;;;;;;5027505;28;20029;-43
2023/01/29 12:59:35;;;;;;;59.70;24.87;;;1.40;99.90;;;;;;5028985;28;20026;-45
2023/01/29 13:02:29;;;;;;;60.10;24.43;;;1.40;99.90;;;;;;5028736;28;20049;-44
2023/01/29 13:05:02;;;;;;;53.87;23.23;;;1.30;99.90;;;;;;5028802;28;20370;-44
2023/01/29 13:07:33;;;;;;;57.83;22.70;;;1.40;99.90;;;;;;5028601;28;20059;-45
2023/01/29 13:10:06;;;;;;;53.60;22.73;;;1.40;99.90;;;;;;5028994;28;20119;-45
2023/01/29 13:12:33;;;;;;;53.43;23.63;;;1.40;99.90;;;;;;5027426;28;20030;-43
2023/01/29 13:15:05;;;;;;;56.80;24.23;;;1.40;99.90;;;;;;5029625;28;20033;-47
2023/01/29 13:17:45;;;;;;;58.87;25.33;;;1.40;99.90;;;;;;5032260;28;20113;-47
2023/01/29 13:20:20;;;;;;;59.30;25.27;;;1.40;99.90;;;;;;5032914;28;20142;-45
2023/01/29 13:22:47;;;;;;;56.00;24.47;;;1.40;99.90;;;;;;5032579;28;20113;-46